createdAt,value
2023-04-09T00:02:28.437Z,10.19
2023-04-09T00:04:57.334Z,10.37
2023-04-09T00:07:26.280Z,10.37
2023-04-09T00:09:55.274Z,10.20
2023-04-09T00:12:24.084Z,10.15
2023-04-09T00:14:53.004Z,10.13
2023-04-09T00:17:21.894Z,10.05
2023-04-09T00:19:50.587Z,10.02
2023-04-09T00:22:19.445Z,9.99
2023-04-09T00:24:48.188Z,10.00
2023-04-09T00:27:16.971Z,10.00
2023-04-09T00:29:45.708Z,10.02
2023-04-09T00:32:14.596Z,9.95
2023-04-09T00:34:43.666Z,9.95
2023-04-09T00:37:13.269Z,9.94
2023-04-09T00:39:42.297Z,10.02
2023-04-09T00:42:11.128Z,10.04
2023-04-09T00:44:40.435Z,10.02
2023-04-09T00:47:09.143Z,10.10
2023-04-09T00:49:37.854Z,10.20
2023-04-09T00:52:07.622Z,10.10
2023-04-09T00:54:36.538Z,10.02
2023-04-09T00:57:05.601Z,10.21
2023-04-09T00:59:34.555Z,10.12
2023-04-09T01:02:03.366Z,10.05
2023-04-09T01:04:32.844Z,9.96
2023-04-09T01:07:17.072Z,9.87
2023-04-09T01:09:54.227Z,9.83
2023-04-09T01:12:32.799Z,9.85
2023-04-09T01:15:07.037Z,9.86
2023-04-09T01:17:41.867Z,9.85
2023-04-09T01:20:18.880Z,9.93
2023-04-09T01:23:01.616Z,9.85
2023-04-09T01:25:45.720Z,9.85
2023-04-09T01:28:19.739Z,9.86
2023-04-09T01:30:52.925Z,9.96
2023-04-09T01:33:23.000Z,9.90
2023-04-09T01:35:52.588Z,9.85
2023-04-09T01:38:22.981Z,9.74
2023-04-09T01:40:53.402Z,9.80
2023-04-09T01:43:24.247Z,9.89
2023-04-09T01:45:53.954Z,10.02
2023-04-09T01:48:24.019Z,9.94
2023-04-09T01:50:54.172Z,10.00
2023-04-09T01:53:23.605Z,10.00
2023-04-09T01:55:52.252Z,10.13
2023-04-09T01:58:21.553Z,10.15
2023-04-09T02:00:52.113Z,10.21
2023-04-09T02:03:25.617Z,9.99
2023-04-09T02:06:00.312Z,9.84
2023-04-09T02:08:30.885Z,10.02
2023-04-09T02:11:04.412Z,10.11
2023-04-09T02:13:35.239Z,10.07
2023-04-09T02:16:05.705Z,10.01
2023-04-09T02:18:34.562Z,9.92
2023-04-09T02:21:05.239Z,9.89
2023-04-09T02:23:34.680Z,9.94
2023-04-09T02:26:03.710Z,9.93
2023-04-09T02:28:32.773Z,9.92
2023-04-09T02:31:02.404Z,9.90
2023-04-09T02:33:32.562Z,9.77
2023-04-09T02:36:01.348Z,9.77
2023-04-09T02:38:30.867Z,9.88
2023-04-09T02:41:00.559Z,9.77
2023-04-09T02:43:29.488Z,9.69
2023-04-09T02:45:58.887Z,9.82
2023-04-09T02:48:27.814Z,9.86
2023-04-09T02:50:56.761Z,9.82
2023-04-09T02:53:25.559Z,9.87
2023-04-09T02:55:54.765Z,9.89
2023-04-09T02:58:23.424Z,10.00
2023-04-09T03:00:52.179Z,9.94
2023-04-09T03:03:21.117Z,9.80
2023-04-09T03:05:50.266Z,9.72
2023-04-09T03:08:19.419Z,9.76
2023-04-09T03:10:48.307Z,9.70
2023-04-09T03:13:17.561Z,9.66
2023-04-09T03:15:46.480Z,9.75
2023-04-09T03:18:15.677Z,9.77
2023-04-09T03:20:44.800Z,9.79
2023-04-09T03:23:13.828Z,9.77
2023-04-09T03:25:51.339Z,9.71
2023-04-09T03:28:30.634Z,9.69
2023-04-09T03:31:10.075Z,9.71
2023-04-09T03:33:49.193Z,9.72
2023-04-09T03:36:18.340Z,9.63
2023-04-09T03:38:47.173Z,9.59
2023-04-09T03:41:16.407Z,9.58
2023-04-09T03:43:45.277Z,9.74
2023-04-09T03:46:14.669Z,9.65
2023-04-09T03:48:45.072Z,9.62
2023-04-09T03:51:14.561Z,9.54
2023-04-09T03:53:44.254Z,9.61
2023-04-09T03:56:13.067Z,9.68
2023-04-09T03:58:42.177Z,9.67
2023-04-09T04:01:11.548Z,9.74
2023-04-09T04:03:40.362Z,9.75
2023-04-09T04:06:09.620Z,9.71
2023-04-09T04:08:38.535Z,9.55
2023-04-09T04:11:07.906Z,9.42
2023-04-09T04:13:36.963Z,9.47
2023-04-09T04:16:10.148Z,9.50
2023-04-09T04:18:39.136Z,9.51
2023-04-09T04:21:14.839Z,9.39
2023-04-09T04:23:44.035Z,9.37
2023-04-09T04:26:13.336Z,9.43
2023-04-09T04:28:42.435Z,9.34
2023-04-09T04:31:12.538Z,9.39
2023-04-09T04:33:42.917Z,9.49
2023-04-09T04:36:13.604Z,9.37
2023-04-09T04:38:42.770Z,9.40
2023-04-09T04:41:13.076Z,9.58
2023-04-09T04:43:41.689Z,9.64
2023-04-09T04:46:10.689Z,9.64
2023-04-09T04:48:39.421Z,9.55
2023-04-09T04:51:08.913Z,9.65
2023-04-09T04:53:37.584Z,9.73
2023-04-09T04:56:07.442Z,9.71
2023-04-09T04:58:36.310Z,9.59
2023-04-09T05:01:05.226Z,9.55
2023-04-09T05:03:34.257Z,9.51
2023-04-09T05:06:03.359Z,9.47
2023-04-09T05:08:32.393Z,9.51
2023-04-09T05:11:01.754Z,9.49
2023-04-09T05:13:30.675Z,9.50
2023-04-09T05:15:59.425Z,9.58
2023-04-09T05:18:28.379Z,9.57
2023-04-09T05:20:57.107Z,9.50
2023-04-09T05:23:27.048Z,9.69
2023-04-09T05:25:55.668Z,9.83
2023-04-09T05:28:24.326Z,9.89
2023-04-09T05:30:53.132Z,9.92
2023-04-09T05:33:22.232Z,9.94
2023-04-09T05:35:51.080Z,10.11
2023-04-09T05:38:20.268Z,10.14
2023-04-09T05:40:49.450Z,10.01
2023-04-09T05:43:18.759Z,9.93
2023-04-09T05:45:48.068Z,9.94
2023-04-09T05:48:18.060Z,10.01
2023-04-09T05:50:55.151Z,10.07
2023-04-09T05:53:24.778Z,10.08
2023-04-09T05:55:53.657Z,10.26
2023-04-09T05:58:22.537Z,10.26
2023-04-09T06:00:52.274Z,10.35
2023-04-09T06:03:21.290Z,10.52
2023-04-09T06:05:50.437Z,10.61
2023-04-09T06:08:19.537Z,10.62
2023-04-09T06:10:48.723Z,10.54
2023-04-09T06:13:17.931Z,10.45
2023-04-09T06:15:46.737Z,10.37
2023-04-09T06:18:15.414Z,10.47
2023-04-09T06:20:44.285Z,10.49
2023-04-09T06:23:13.033Z,10.55
2023-04-09T06:25:41.889Z,10.69
2023-04-09T06:28:11.219Z,10.72
2023-04-09T06:30:40.180Z,10.87
2023-04-09T06:33:08.931Z,10.87
2023-04-09T06:35:37.933Z,11.00
2023-04-09T06:38:07.380Z,10.90
2023-04-09T06:40:36.635Z,10.75
2023-04-09T06:43:05.508Z,10.72
2023-04-09T06:45:34.991Z,10.78
2023-04-09T06:48:04.722Z,10.91
2023-04-09T06:50:33.935Z,10.99
2023-04-09T06:53:02.799Z,11.18
2023-04-09T06:55:31.881Z,11.59
2023-04-09T06:58:13.364Z,11.91
2023-04-09T07:00:45.138Z,12.10
2023-04-09T07:03:19.167Z,12.16
2023-04-09T07:05:56.702Z,12.34
2023-04-09T07:08:30.966Z,12.66
2023-04-09T07:11:00.752Z,13.03
2023-04-09T07:13:29.667Z,12.96
2023-04-09T07:15:58.746Z,12.84
2023-04-09T07:18:28.124Z,12.98
2023-04-09T07:20:56.907Z,12.96
2023-04-09T07:23:25.847Z,12.89
2023-04-09T07:25:55.548Z,12.88
2023-04-09T07:28:27.317Z,12.86
2023-04-09T07:31:03.599Z,12.96
2023-04-09T07:33:44.090Z,13.15
2023-04-09T07:36:13.591Z,13.42
2023-04-09T07:38:44.328Z,13.57
2023-04-09T07:41:13.339Z,13.58
2023-04-09T07:43:42.203Z,13.67
2023-04-09T07:46:11.515Z,13.68
2023-04-09T07:48:40.696Z,13.77
2023-04-09T07:51:11.650Z,13.94
2023-04-09T07:53:42.462Z,14.09
2023-04-09T07:56:12.012Z,14.19
2023-04-09T07:58:58.858Z,14.32
2023-04-09T08:01:31.066Z,14.30
2023-04-09T08:04:00.117Z,14.44
2023-04-09T08:06:29.211Z,14.44
2023-04-09T08:09:00.945Z,14.52
2023-04-09T08:11:29.805Z,14.75
2023-04-09T08:14:03.571Z,14.91
2023-04-09T08:16:42.694Z,14.97
2023-04-09T08:19:13.887Z,15.05
2023-04-09T08:21:49.263Z,15.09
2023-04-09T08:24:21.246Z,15.15
2023-04-09T08:26:50.073Z,15.26
2023-04-09T08:29:18.860Z,15.46
2023-04-09T08:31:48.250Z,15.54
2023-04-09T08:34:20.659Z,15.64
2023-04-09T08:36:49.518Z,15.60
2023-04-09T08:39:19.755Z,15.58
2023-04-09T08:41:48.833Z,15.57
2023-04-09T08:44:19.250Z,15.61
2023-04-09T08:46:48.010Z,15.66
2023-04-09T08:49:16.810Z,15.45
2023-04-09T08:51:48.471Z,15.13
2023-04-09T08:54:19.659Z,14.93
2023-04-09T08:56:48.850Z,14.89
2023-04-09T08:59:18.832Z,14.81
2023-04-09T09:01:53.809Z,14.75
2023-04-09T09:04:22.630Z,14.76
2023-04-09T09:06:54.723Z,14.71
2023-04-09T09:09:26.511Z,14.63
2023-04-09T09:11:55.605Z,14.65
2023-04-09T09:14:24.409Z,14.58
2023-04-09T09:17:07.783Z,14.54
2023-04-09T09:19:39.068Z,14.61
2023-04-09T09:22:10.607Z,14.69
2023-04-09T09:24:49.830Z,14.68
2023-04-09T09:27:40.269Z,14.77
2023-04-09T09:30:21.375Z,14.85
2023-04-09T09:32:53.433Z,14.78
2023-04-09T09:35:23.039Z,14.71
2023-04-09T09:38:03.824Z,14.88
2023-04-09T09:40:32.918Z,15.11
2023-04-09T09:43:02.294Z,15.15
2023-04-09T09:45:32.520Z,15.15
2023-04-09T09:48:01.986Z,15.11
2023-04-09T09:50:32.110Z,15.20
2023-04-09T09:53:05.184Z,15.07
2023-04-09T09:55:36.999Z,14.81
2023-04-09T09:58:16.692Z,14.87
2023-04-09T10:00:48.563Z,14.94
2023-04-09T10:03:23.717Z,14.88
2023-04-09T10:05:53.568Z,14.94
2023-04-09T10:08:23.686Z,15.00
2023-04-09T10:10:53.879Z,15.00
2023-04-09T10:13:29.394Z,15.05
2023-04-09T10:15:59.786Z,15.01
2023-04-09T10:18:28.941Z,14.93
2023-04-09T10:21:04.276Z,14.95
2023-04-09T10:23:38.135Z,15.05
2023-04-09T10:26:07.172Z,15.14
2023-04-09T10:28:38.580Z,15.17
2023-04-09T10:31:09.050Z,15.17
2023-04-09T10:33:39.606Z,15.20
2023-04-09T10:36:13.007Z,15.27
2023-04-09T10:38:56.783Z,15.23
2023-04-09T10:41:43.190Z,15.28
2023-04-09T10:44:34.367Z,15.37
2023-04-09T10:47:09.414Z,15.27
2023-04-09T10:49:50.256Z,15.17
2023-04-09T10:52:36.447Z,15.22
2023-04-09T10:55:21.625Z,15.03
2023-04-09T10:58:04.507Z,15.04
2023-04-09T11:00:41.729Z,14.90
2023-04-09T11:03:25.333Z,14.77
2023-04-09T11:06:02.308Z,14.82
2023-04-09T11:08:37.339Z,14.87
2023-04-09T11:11:06.962Z,14.94
2023-04-09T11:13:42.972Z,14.81
2023-04-09T11:16:24.807Z,14.68
2023-04-09T11:18:58.565Z,14.71
2023-04-09T11:21:39.099Z,14.87
2023-04-09T11:24:08.519Z,14.91
2023-04-09T11:26:41.205Z,14.92
2023-04-09T11:29:10.233Z,15.12
2023-04-09T11:31:39.602Z,15.28
2023-04-09T11:34:12.120Z,15.39
2023-04-09T11:36:41.192Z,15.54
2023-04-09T11:39:10.237Z,15.73
2023-04-09T11:41:43.015Z,15.69
2023-04-09T11:44:12.168Z,15.67
2023-04-09T11:46:56.815Z,15.61
2023-04-09T11:49:55.640Z,15.47
2023-04-09T11:52:39.192Z,15.62
2023-04-09T11:55:30.834Z,15.58
2023-04-09T11:58:07.831Z,15.62
2023-04-09T12:00:50.003Z,15.68
2023-04-09T12:04:03.327Z,15.90
2023-04-09T12:07:04.981Z,15.88
2023-04-09T12:10:01.565Z,16.01
2023-04-09T12:12:38.262Z,15.97
2023-04-09T12:15:32.797Z,15.89
2023-04-09T12:18:17.898Z,15.78
2023-04-09T12:21:07.932Z,15.69
2023-04-09T12:26:44.509Z,15.45
2023-04-09T12:29:48.739Z,15.41
2023-04-09T12:35:52.907Z,15.54
2023-04-09T12:38:36.067Z,15.61
2023-04-09T12:41:16.571Z,15.61
2023-04-09T12:44:01.330Z,15.48
2023-04-09T12:47:33.383Z,15.51
2023-04-09T12:50:32.612Z,15.84
2023-04-09T12:53:13.916Z,15.98
2023-04-09T12:56:00.268Z,16.16
2023-04-09T12:58:42.562Z,16.18
2023-04-09T13:01:21.988Z,16.17
2023-04-09T13:04:10.423Z,16.13
2023-04-09T13:07:17.873Z,16.18
2023-04-09T13:10:41.360Z,16.21
2023-04-09T13:16:30.986Z,16.44
2023-04-09T13:19:19.550Z,16.38
2023-04-09T13:22:14.765Z,16.16
2023-04-09T13:25:05.393Z,15.97
2023-04-09T13:36:22.985Z,15.97
2023-04-09T13:39:45.818Z,15.85
2023-04-09T13:43:04.609Z,15.89
2023-04-09T13:50:36.198Z,16.00
2023-04-09T13:57:50.578Z,16.34
2023-04-09T14:00:25.678Z,16.21
2023-04-09T14:03:06.850Z,16.11
2023-04-09T14:06:40.074Z,16.05
2023-04-09T14:13:10.451Z,16.51
2023-04-09T14:15:41.892Z,16.50
2023-04-09T14:18:27.410Z,16.45
2023-04-09T14:21:25.494Z,16.40
2023-04-09T14:23:56.483Z,16.46
2023-04-09T14:26:31.704Z,16.51
2023-04-09T14:29:07.009Z,16.51
2023-04-09T14:31:44.428Z,16.62
2023-04-09T14:34:13.854Z,16.69
2023-04-09T14:36:50.194Z,16.75
2023-04-09T14:39:51.704Z,16.89
2023-04-09T14:42:36.412Z,17.07
2023-04-09T14:45:11.945Z,17.24
2023-04-09T14:47:50.402Z,17.37
2023-04-09T14:50:30.158Z,17.60
2023-04-09T14:53:04.289Z,17.65
2023-04-09T14:56:09.976Z,17.60
2023-04-09T14:58:45.548Z,17.74
2023-04-09T15:01:33.376Z,17.83
2023-04-09T15:07:25.356Z,17.71
2023-04-09T15:09:59.709Z,17.65
2023-04-09T15:12:36.246Z,17.63
2023-04-09T15:15:28.000Z,17.53
2023-04-09T15:18:25.170Z,17.43
2023-04-09T15:21:03.778Z,17.28
2023-04-09T15:23:57.823Z,17.20
2023-04-09T15:26:51.721Z,16.96
2023-04-09T15:29:51.047Z,16.74
2023-04-09T15:32:38.049Z,16.54
2023-04-09T15:35:29.395Z,16.48
2023-04-09T15:38:34.598Z,16.26
2023-04-09T15:41:18.385Z,16.38
2023-04-09T15:44:01.271Z,16.30
2023-04-09T15:47:12.620Z,16.31
2023-04-09T15:50:09.965Z,16.21
2023-04-09T15:52:53.880Z,16.11
2023-04-09T15:55:48.966Z,16.01
2023-04-09T15:58:29.495Z,15.93
2023-04-09T16:02:39.578Z,15.90
2023-04-09T16:04:43.186Z,15.78
2023-04-09T16:07:52.437Z,15.63
2023-04-09T16:11:02.970Z,15.59
2023-04-09T16:14:02.866Z,15.42
2023-04-09T16:17:06.082Z,15.37
2023-04-09T16:19:51.498Z,15.29
2023-04-09T16:22:36.601Z,15.32
2023-04-09T16:25:46.559Z,15.35
2023-04-09T16:29:01.006Z,15.23
2023-04-09T16:31:44.522Z,15.28
2023-04-09T16:34:32.581Z,15.29
2023-04-09T16:37:12.913Z,15.25
2023-04-09T16:39:49.188Z,15.15
2023-04-09T16:42:41.035Z,15.20
2023-04-09T16:45:28.732Z,15.21
2023-04-09T16:48:25.564Z,15.30
2023-04-09T16:51:24.757Z,15.30
2023-04-09T16:54:19.611Z,15.31
2023-04-09T16:57:25.407Z,15.23
2023-04-09T17:00:12.922Z,15.26
2023-04-09T17:02:46.160Z,15.23
2023-04-09T17:06:11.174Z,15.22
2023-04-09T17:09:06.906Z,15.25
2023-04-09T17:12:04.108Z,15.30
2023-04-09T17:18:25.535Z,15.21
2023-04-09T17:21:16.489Z,15.25
2023-04-09T17:23:46.668Z,15.17
2023-04-09T17:26:56.479Z,15.15
2023-04-09T17:29:37.782Z,15.10
2023-04-09T17:32:21.094Z,15.12
2023-04-09T17:35:08.625Z,15.00
2023-04-09T17:37:38.432Z,15.01
2023-04-09T17:40:16.590Z,14.98
2023-04-09T17:42:47.366Z,14.89
2023-04-09T17:45:32.360Z,14.88
2023-04-09T17:48:00.413Z,14.76
2023-04-09T17:50:38.579Z,14.72
2023-04-09T17:53:32.204Z,14.62
2023-04-09T17:56:22.484Z,14.62
2023-04-09T17:58:54.597Z,14.67
2023-04-09T18:02:04.598Z,14.63
2023-04-09T18:12:00.272Z,14.60
2023-04-09T18:14:41.745Z,14.62
2023-04-09T18:21:19.374Z,14.69
2023-04-09T18:24:21.054Z,14.66
2023-04-09T18:26:58.165Z,14.69
2023-04-09T18:30:03.451Z,14.72
2023-04-09T18:32:58.052Z,14.64
2023-04-09T18:36:18.526Z,14.57
2023-04-09T18:39:56.435Z,14.64
2023-04-09T18:43:19.489Z,14.65
2023-04-09T18:46:07.692Z,14.68
2023-04-09T18:49:29.711Z,14.67
2023-04-09T18:52:03.985Z,14.68
2023-04-09T18:54:51.152Z,14.47
2023-04-09T18:57:20.895Z,14.36
2023-04-09T18:59:53.600Z,14.18
2023-04-09T19:02:25.824Z,14.03
2023-04-09T19:04:56.657Z,13.90
2023-04-09T19:07:27.492Z,13.95
2023-04-09T19:10:00.649Z,13.97
2023-04-09T19:12:30.290Z,13.94
2023-04-09T19:15:06.051Z,13.89
2023-04-09T19:17:47.685Z,13.75
2023-04-09T19:20:40.341Z,13.76
2023-04-09T19:23:16.197Z,13.82
2023-04-09T19:26:09.797Z,13.92
2023-04-09T19:28:46.913Z,13.85
2023-04-09T19:31:29.526Z,13.91
2023-04-09T19:34:08.676Z,13.83
2023-04-09T19:37:14.138Z,13.76
2023-04-09T19:40:43.851Z,13.64
2023-04-09T19:43:15.199Z,13.68
2023-04-09T19:45:46.921Z,13.54
2023-04-09T19:48:17.549Z,13.56
2023-04-09T19:50:51.094Z,13.50
2023-04-09T19:53:44.184Z,13.36
2023-04-09T19:56:16.184Z,13.24
2023-04-09T19:59:00.518Z,13.26
2023-04-09T20:01:38.412Z,13.25
2023-04-09T20:15:57.757Z,13.15
2023-04-09T20:20:15.767Z,13.18
2023-04-09T20:23:09.466Z,13.25
2023-04-09T20:30:07.252Z,13.24
2023-04-09T20:32:54.161Z,13.18
2023-04-09T20:36:37.560Z,13.10
2023-04-09T20:40:20.322Z,13.15
2023-04-09T21:02:10.436Z,13.21
2023-04-09T21:05:01.615Z,13.06
2023-04-09T21:07:58.633Z,13.10
2023-04-09T21:10:37.639Z,13.07
2023-04-09T21:13:29.211Z,13.08
2023-04-09T21:16:35.457Z,12.99
2023-04-09T21:19:29.687Z,12.90
2023-04-09T21:22:11.303Z,12.85
2023-04-09T21:25:01.965Z,12.83
2023-04-09T21:28:00.643Z,12.74
2023-04-09T21:31:00.230Z,12.74
2023-04-09T21:34:07.272Z,12.63
2023-04-09T21:37:05.770Z,12.65
2023-04-09T21:40:23.047Z,12.60
2023-04-09T21:43:13.999Z,12.59
2023-04-09T21:46:37.671Z,12.49
2023-04-09T21:49:01.890Z,12.67
2023-04-09T21:52:01.829Z,12.76
2023-04-09T21:58:00.889Z,12.73
2023-04-09T22:01:02.262Z,12.77
2023-04-09T22:04:09.555Z,12.75
2023-04-09T22:10:21.119Z,12.62
2023-04-09T22:13:16.288Z,12.53
2023-04-09T22:16:00.251Z,12.46
2023-04-09T22:18:48.238Z,12.41
2023-04-09T22:21:34.140Z,12.40
2023-04-09T22:24:09.124Z,12.39
2023-04-09T22:26:57.136Z,12.34
2023-04-09T22:29:38.222Z,12.15
2023-04-09T22:32:53.722Z,12.07
2023-04-09T22:35:38.172Z,12.17
2023-04-09T22:38:15.796Z,12.14
2023-04-09T22:40:52.115Z,12.09
2023-04-09T22:43:40.665Z,12.04
2023-04-09T22:46:16.155Z,11.96
2023-04-09T22:48:47.348Z,11.80
2023-04-09T22:51:40.164Z,11.56
2023-04-09T22:54:16.086Z,11.54
2023-04-09T22:56:48.301Z,11.56
2023-04-09T22:59:21.335Z,11.52
2023-04-09T23:01:57.070Z,11.37
2023-04-09T23:04:45.805Z,11.32
2023-04-09T23:07:20.388Z,11.27
2023-04-09T23:13:52.981Z,11.30
2023-04-09T23:16:37.376Z,11.32
2023-04-09T23:19:17.068Z,11.23
2023-04-09T23:21:49.700Z,11.12
2023-04-09T23:24:28.901Z,10.92
2023-04-09T23:27:16.041Z,10.82
2023-04-09T23:29:51.132Z,10.82
2023-04-09T23:32:36.458Z,10.88
2023-04-09T23:35:07.238Z,10.84
2023-04-09T23:37:42.974Z,10.84
2023-04-09T23:40:32.659Z,10.75
2023-04-09T23:43:05.584Z,10.77
2023-04-09T23:45:50.293Z,10.62
2023-04-09T23:48:23.057Z,10.63
2023-04-09T23:50:56.810Z,10.57
2023-04-09T23:53:31.455Z,10.44
2023-04-09T23:56:01.953Z,10.42
2023-04-09T23:58:37.002Z,10.33
